sensor_id;sensor_type;location;lat;lon;timestamp;pressure;altitude;pressure_sealevel;temperature;humidity
6393;BME280;3229;42.674;23.282;2023-07-28T00:00:43;94728.28;;;17.56;61.13
6393;BME280;3229;42.674;23.282;2023-07-28T00:03:12;94723.75;;;17.58;60.65
6393;BME280;3229;42.674;23.282;2023-07-28T00:05:38;94716.94;;;17.57;60.35
6393;BME280;3229;42.674;23.282;2023-07-28T00:08:05;94728.00;;;17.66;60.29
6393;BME280;3229;42.674;23.282;2023-07-28T00:10:32;94730.34;;;17.61;60.34
6393;BME280;3229;42.674;23.282;2023-07-28T00:12:59;94713.50;;;17.50;60.54
6393;BME280;3229;42.674;23.282;2023-07-28T00:15:27;94722.66;;;17.52;60.78
6393;BME280;3229;42.674;23.282;2023-07-28T00:17:54;94717.06;;;17.49;61.19
6393;BME280;3229;42.674;23.282;2023-07-28T00:20:22;94717.06;;;17.49;61.54
6393;BME280;3229;42.674;23.282;2023-07-28T00:22:49;94717.44;;;17.46;61.37
6393;BME280;3229;42.674;23.282;2023-07-28T00:25:16;94716.78;;;17.44;61.66
6393;BME280;3229;42.674;23.282;2023-07-28T00:27:43;94708.22;;;17.43;61.64
6393;BME280;3229;42.674;23.282;2023-07-28T00:30:11;94713.94;;;17.39;61.77
6393;BME280;3229;42.674;23.282;2023-07-28T00:32:38;94700.50;;;17.28;61.76
6393;BME280;3229;42.674;23.282;2023-07-28T00:35:05;94709.31;;;17.34;61.59
6393;BME280;3229;42.674;23.282;2023-07-28T00:37:33;94705.47;;;17.30;61.10
6393;BME280;3229;42.674;23.282;2023-07-28T00:40:00;94709.25;;;17.27;60.81
6393;BME280;3229;42.674;23.282;2023-07-28T00:42:27;94709.66;;;17.31;60.94
6393;BME280;3229;42.674;23.282;2023-07-28T00:44:54;94710.84;;;17.28;61.14
6393;BME280;3229;42.674;23.282;2023-07-28T00:47:20;94718.41;;;17.30;61.10
6393;BME280;3229;42.674;23.282;2023-07-28T00:49:47;94722.50;;;17.24;60.90
6393;BME280;3229;42.674;23.282;2023-07-28T00:52:14;94712.84;;;17.18;60.51
6393;BME280;3229;42.674;23.282;2023-07-28T00:54:42;94715.44;;;17.18;60.55
6393;BME280;3229;42.674;23.282;2023-07-28T00:57:10;94719.81;;;17.18;60.71
6393;BME280;3229;42.674;23.282;2023-07-28T00:59:36;94721.78;;;17.16;61.10
6393;BME280;3229;42.674;23.282;2023-07-28T01:02:04;94715.63;;;17.17;61.19
6393;BME280;3229;42.674;23.282;2023-07-28T01:04:31;94704.22;;;17.11;61.44
6393;BME280;3229;42.674;23.282;2023-07-28T01:07:04;94711.97;;;17.11;61.94
6393;BME280;3229;42.674;23.282;2023-07-28T01:09:40;94712.78;;;17.12;62.18
6393;BME280;3229;42.674;23.282;2023-07-28T01:12:11;94709.56;;;17.10;62.58
6393;BME280;3229;42.674;23.282;2023-07-28T01:14:37;94716.97;;;17.13;62.71
6393;BME280;3229;42.674;23.282;2023-07-28T01:17:04;94715.97;;;17.14;62.79
6393;BME280;3229;42.674;23.282;2023-07-28T01:19:31;94719.56;;;17.13;62.96
6393;BME280;3229;42.674;23.282;2023-07-28T01:22:16;94716.50;;;17.09;63.24
6393;BME280;3229;42.674;23.282;2023-07-28T01:24:54;94721.75;;;17.01;64.57
6393;BME280;3229;42.674;23.282;2023-07-28T01:27:24;94717.31;;;16.95;65.06
6393;BME280;3229;42.674;23.282;2023-07-28T01:29:51;94719.09;;;16.94;65.78
6393;BME280;3229;42.674;23.282;2023-07-28T01:32:18;94716.13;;;16.83;66.01
6393;BME280;3229;42.674;23.282;2023-07-28T01:34:45;94718.72;;;16.83;66.04
6393;BME280;3229;42.674;23.282;2023-07-28T01:37:12;94690.31;;;16.60;66.26
6393;BME280;3229;42.674;23.282;2023-07-28T01:39:39;94709.94;;;16.69;66.17
6393;BME280;3229;42.674;23.282;2023-07-28T01:42:06;94711.16;;;16.58;66.60
6393;BME280;3229;42.674;23.282;2023-07-28T01:44:34;94709.19;;;16.60;66.89
6393;BME280;3229;42.674;23.282;2023-07-28T01:47:00;94715.69;;;16.56;66.77
6393;BME280;3229;42.674;23.282;2023-07-28T01:49:27;94718.31;;;16.48;67.07
6393;BME280;3229;42.674;23.282;2023-07-28T01:51:54;94720.69;;;16.35;67.33
6393;BME280;3229;42.674;23.282;2023-07-28T01:54:21;94715.41;;;16.28;67.72
6393;BME280;3229;42.674;23.282;2023-07-28T01:56:47;94717.25;;;16.19;67.93
6393;BME280;3229;42.674;23.282;2023-07-28T01:59:14;94721.44;;;16.20;68.10
6393;BME280;3229;42.674;23.282;2023-07-28T02:01:42;94715.34;;;16.13;68.24
6393;BME280;3229;42.674;23.282;2023-07-28T02:04:09;94723.78;;;16.07;68.32
6393;BME280;3229;42.674;23.282;2023-07-28T02:06:36;94718.00;;;15.97;68.86
6393;BME280;3229;42.674;23.282;2023-07-28T02:09:03;94713.22;;;15.94;69.00
6393;BME280;3229;42.674;23.282;2023-07-28T02:11:30;94721.75;;;15.94;69.10
6393;BME280;3229;42.674;23.282;2023-07-28T02:13:56;94718.69;;;15.91;69.04
6393;BME280;3229;42.674;23.282;2023-07-28T02:16:23;94720.00;;;15.87;69.00
6393;BME280;3229;42.674;23.282;2023-07-28T02:18:54;94719.38;;;15.85;69.59
6393;BME280;3229;42.674;23.282;2023-07-28T02:21:20;94719.03;;;15.88;69.27
6393;BME280;3229;42.674;23.282;2023-07-28T02:23:48;94728.53;;;15.87;69.58
6393;BME280;3229;42.674;23.282;2023-07-28T02:26:15;94729.53;;;15.86;69.38
6393;BME280;3229;42.674;23.282;2023-07-28T02:28:41;94729.53;;;15.86;69.35
6393;BME280;3229;42.674;23.282;2023-07-28T02:31:08;94728.25;;;15.82;69.79
6393;BME280;3229;42.674;23.282;2023-07-28T02:33:35;94735.19;;;15.82;69.65
6393;BME280;3229;42.674;23.282;2023-07-28T02:36:03;94732.44;;;15.83;69.66
6393;BME280;3229;42.674;23.282;2023-07-28T02:38:30;94728.09;;;15.75;70.04
6393;BME280;3229;42.674;23.282;2023-07-28T02:40:57;94733.94;;;15.69;70.48
6393;BME280;3229;42.674;23.282;2023-07-28T02:43:24;94728.16;;;15.59;70.86
6393;BME280;3229;42.674;23.282;2023-07-28T02:45:53;94734.94;;;15.60;71.01
6393;BME280;3229;42.674;23.282;2023-07-28T02:48:21;94728.50;;;15.56;70.94
6393;BME280;3229;42.674;23.282;2023-07-28T02:50:50;94725.44;;;15.52;71.39
6393;BME280;3229;42.674;23.282;2023-07-28T02:53:18;94725.16;;;15.47;71.64
6393;BME280;3229;42.674;23.282;2023-07-28T02:55:46;94725.78;;;15.49;71.35
6393;BME280;3229;42.674;23.282;2023-07-28T02:58:13;94713.75;;;15.42;71.61
6393;BME280;3229;42.674;23.282;2023-07-28T03:00:41;94722.91;;;15.44;71.75
6393;BME280;3229;42.674;23.282;2023-07-28T03:03:10;94723.06;;;15.43;71.60
6393;BME280;3229;42.674;23.282;2023-07-28T03:05:37;94718.56;;;15.37;71.56
6393;BME280;3229;42.674;23.282;2023-07-28T03:08:04;94717.28;;;15.32;71.43
6393;BME280;3229;42.674;23.282;2023-07-28T03:10:32;94731.59;;;15.43;71.29
6393;BME280;3229;42.674;23.282;2023-07-28T03:12:59;94724.16;;;15.48;71.31
6393;BME280;3229;42.674;23.282;2023-07-28T03:15:26;94735.63;;;15.46;71.67
6393;BME280;3229;42.674;23.282;2023-07-28T03:17:53;94732.56;;;15.42;71.19
6393;BME280;3229;42.674;23.282;2023-07-28T03:20:20;94737.72;;;15.42;71.27
6393;BME280;3229;42.674;23.282;2023-07-28T03:22:47;94728.72;;;15.38;71.36
6393;BME280;3229;42.674;23.282;2023-07-28T03:25:14;94732.91;;;15.39;71.66
6393;BME280;3229;42.674;23.282;2023-07-28T03:27:42;94728.06;;;15.36;71.38
6393;BME280;3229;42.674;23.282;2023-07-28T03:30:09;94742.53;;;15.45;71.08
6393;BME280;3229;42.674;23.282;2023-07-28T03:32:36;94746.88;;;15.45;71.17
6393;BME280;3229;42.674;23.282;2023-07-28T03:35:04;94752.81;;;15.53;71.14
6393;BME280;3229;42.674;23.282;2023-07-28T03:37:31;94750.91;;;15.55;70.78
6393;BME280;3229;42.674;23.282;2023-07-28T03:39:58;94739.13;;;15.53;71.14
6393;BME280;3229;42.674;23.282;2023-07-28T03:42:24;94745.59;;;15.49;71.28
6393;BME280;3229;42.674;23.282;2023-07-28T03:44:53;94757.03;;;15.54;71.24
6393;BME280;3229;42.674;23.282;2023-07-28T03:47:20;94755.69;;;15.59;71.12
6393;BME280;3229;42.674;23.282;2023-07-28T03:49:46;94758.47;;;15.65;70.95
6393;BME280;3229;42.674;23.282;2023-07-28T03:52:13;94758.13;;;15.68;70.53
6393;BME280;3229;42.674;23.282;2023-07-28T03:54:40;94749.25;;;15.71;70.29
6393;BME280;3229;42.674;23.282;2023-07-28T03:57:08;94756.34;;;15.69;70.57
6393;BME280;3229;42.674;23.282;2023-07-28T03:59:35;94754.06;;;15.74;70.37
6393;BME280;3229;42.674;23.282;2023-07-28T04:02:03;94751.03;;;15.70;70.52
6393;BME280;3229;42.674;23.282;2023-07-28T04:04:30;94745.06;;;15.62;70.96
6393;BME280;3229;42.674;23.282;2023-07-28T04:06:57;94762.31;;;15.61;71.10
6393;BME280;3229;42.674;23.282;2023-07-28T04:09:24;94761.81;;;15.57;71.57
6393;BME280;3229;42.674;23.282;2023-07-28T04:11:51;94758.44;;;15.57;71.66
6393;BME280;3229;42.674;23.282;2023-07-28T04:14:17;94754.56;;;15.61;71.29
6393;BME280;3229;42.674;23.282;2023-07-28T04:16:44;94755.56;;;15.68;71.35
6393;BME280;3229;42.674;23.282;2023-07-28T04:19:12;94753.56;;;15.78;70.77
6393;BME280;3229;42.674;23.282;2023-07-28T04:21:39;94755.97;;;15.80;70.33
6393;BME280;3229;42.674;23.282;2023-07-28T04:24:06;94765.16;;;15.83;69.94
6393;BME280;3229;42.674;23.282;2023-07-28T04:26:33;94763.66;;;15.88;69.99
6393;BME280;3229;42.674;23.282;2023-07-28T04:29:00;94773.94;;;15.96;69.35
6393;BME280;3229;42.674;23.282;2023-07-28T04:31:27;94760.44;;;15.94;69.26
6393;BME280;3229;42.674;23.282;2023-07-28T04:33:54;94766.22;;;15.96;69.54
6393;BME280;3229;42.674;23.282;2023-07-28T04:36:22;94760.41;;;16.02;69.34
6393;BME280;3229;42.674;23.282;2023-07-28T04:38:49;94763.59;;;16.04;69.31
6393;BME280;3229;42.674;23.282;2023-07-28T04:41:15;94754.75;;;15.99;69.49
6393;BME280;3229;42.674;23.282;2023-07-28T04:43:42;94760.69;;;16.08;69.10
6393;BME280;3229;42.674;23.282;2023-07-28T04:46:09;94758.91;;;16.08;69.13
6393;BME280;3229;42.674;23.282;2023-07-28T04:48:35;94759.19;;;16.13;69.13
6393;BME280;3229;42.674;23.282;2023-07-28T04:51:02;94755.78;;;16.21;69.11
6393;BME280;3229;42.674;23.282;2023-07-28T04:53:30;94764.44;;;16.28;68.75
6393;BME280;3229;42.674;23.282;2023-07-28T04:55:57;94757.16;;;16.31;68.65
6393;BME280;3229;42.674;23.282;2023-07-28T04:58:24;94755.81;;;16.36;68.48
6393;BME280;3229;42.674;23.282;2023-07-28T05:00:51;94750.63;;;16.44;68.22
6393;BME280;3229;42.674;23.282;2023-07-28T05:03:17;94749.75;;;16.51;68.01
6393;BME280;3229;42.674;23.282;2023-07-28T05:05:44;94755.47;;;16.62;67.88
6393;BME280;3229;42.674;23.282;2023-07-28T05:08:11;94758.50;;;16.73;67.86
6393;BME280;3229;42.674;23.282;2023-07-28T05:10:40;94753.66;;;17.08;66.80
6393;BME280;3229;42.674;23.282;2023-07-28T05:13:07;94752.63;;;17.47;65.66
6393;BME280;3229;42.674;23.282;2023-07-28T05:15:34;94751.38;;;18.02;63.75
6393;BME280;3229;42.674;23.282;2023-07-28T05:18:00;94734.66;;;18.41;61.20
6393;BME280;3229;42.674;23.282;2023-07-28T05:20:27;94751.00;;;19.12;59.17
6393;BME280;3229;42.674;23.282;2023-07-28T05:22:54;94751.16;;;19.67;57.36
6393;BME280;3229;42.674;23.282;2023-07-28T05:25:21;94760.38;;;20.24;55.82
6393;BME280;3229;42.674;23.282;2023-07-28T05:27:50;94759.53;;;20.78;54.02
6393;BME280;3229;42.674;23.282;2023-07-28T05:30:17;94764.13;;;21.29;52.79
6393;BME280;3229;42.674;23.282;2023-07-28T05:32:44;94760.22;;;21.78;51.89
6393;BME280;3229;42.674;23.282;2023-07-28T05:35:11;94763.31;;;22.20;50.17
6393;BME280;3229;42.674;23.282;2023-07-28T05:37:38;94754.78;;;22.38;49.43
6393;BME280;3229;42.674;23.282;2023-07-28T05:40:06;94751.09;;;22.52;49.16
6393;BME280;3229;42.674;23.282;2023-07-28T05:42:33;94734.41;;;22.60;48.87
6393;BME280;3229;42.674;23.282;2023-07-28T05:45:01;94749.22;;;22.97;48.76
6393;BME280;3229;42.674;23.282;2023-07-28T05:47:28;94751.53;;;23.31;47.91
6393;BME280;3229;42.674;23.282;2023-07-28T05:49:55;94747.19;;;23.61;46.77
6393;BME280;3229;42.674;23.282;2023-07-28T05:52:22;94748.09;;;23.92;46.35
6393;BME280;3229;42.674;23.282;2023-07-28T05:54:49;94746.53;;;24.21;44.82
6393;BME280;3229;42.674;23.282;2023-07-28T05:57:16;94752.34;;;24.41;44.84
6393;BME280;3229;42.674;23.282;2023-07-28T05:59:42;94732.25;;;24.53;44.12
6393;BME280;3229;42.674;23.282;2023-07-28T06:02:11;94738.44;;;24.83;43.66
6393;BME280;3229;42.674;23.282;2023-07-28T06:04:37;94742.28;;;25.10;43.18
6393;BME280;3229;42.674;23.282;2023-07-28T06:07:05;94725.31;;;25.13;42.32
6393;BME280;3229;42.674;23.282;2023-07-28T06:09:32;94728.28;;;25.28;42.38
6393;BME280;3229;42.674;23.282;2023-07-28T06:11:59;94736.00;;;25.46;41.55
6393;BME280;3229;42.674;23.282;2023-07-28T06:14:26;94740.56;;;25.63;41.00
6393;BME280;3229;42.674;23.282;2023-07-28T06:16:53;94736.91;;;25.75;41.06
6393;BME280;3229;42.674;23.282;2023-07-28T06:19:21;94732.66;;;25.86;41.09
6393;BME280;3229;42.674;23.282;2023-07-28T06:21:49;94724.81;;;25.86;40.74
6393;BME280;3229;42.674;23.282;2023-07-28T06:24:17;94745.16;;;26.08;40.76
6393;BME280;3229;42.674;23.282;2023-07-28T06:26:44;94736.81;;;26.11;40.33
6393;BME280;3229;42.674;23.282;2023-07-28T06:29:10;94733.13;;;26.23;40.31
6393;BME280;3229;42.674;23.282;2023-07-28T06:31:37;94732.06;;;26.36;40.16
6393;BME280;3229;42.674;23.282;2023-07-28T06:34:04;94732.38;;;26.68;40.02
6393;BME280;3229;42.674;23.282;2023-07-28T06:36:33;94731.91;;;26.88;38.82
6393;BME280;3229;42.674;23.282;2023-07-28T06:39:00;94731.84;;;26.83;39.12
6393;BME280;3229;42.674;23.282;2023-07-28T06:41:27;94718.66;;;26.95;39.02
6393;BME280;3229;42.674;23.282;2023-07-28T06:43:54;94728.91;;;26.96;39.43
6393;BME280;3229;42.674;23.282;2023-07-28T06:46:21;94732.25;;;26.92;38.98
6393;BME280;3229;42.674;23.282;2023-07-28T06:48:48;94727.38;;;26.84;39.09
6393;BME280;3229;42.674;23.282;2023-07-28T06:51:14;94731.53;;;26.96;38.75
6393;BME280;3229;42.674;23.282;2023-07-28T06:53:42;94743.66;;;27.14;38.71
6393;BME280;3229;42.674;23.282;2023-07-28T06:56:09;94731.47;;;27.42;37.73
6393;BME280;3229;42.674;23.282;2023-07-28T06:58:36;94737.09;;;27.50;37.89
6393;BME280;3229;42.674;23.282;2023-07-28T07:01:03;94733.66;;;27.50;37.50
6393;BME280;3229;42.674;23.282;2023-07-28T07:03:30;94735.25;;;27.51;38.32
6393;BME280;3229;42.674;23.282;2023-07-28T07:05:56;94721.38;;;27.72;37.96
6393;BME280;3229;42.674;23.282;2023-07-28T07:08:23;94738.88;;;27.67;37.88
6393;BME280;3229;42.674;23.282;2023-07-28T07:10:52;94727.75;;;27.60;38.16
6393;BME280;3229;42.674;23.282;2023-07-28T07:13:19;94732.88;;;27.71;38.01
6393;BME280;3229;42.674;23.282;2023-07-28T07:15:46;94734.06;;;27.81;37.68
6393;BME280;3229;42.674;23.282;2023-07-28T07:18:13;94729.69;;;27.86;37.64
6393;BME280;3229;42.674;23.282;2023-07-28T07:20:40;94724.22;;;27.93;37.89
6393;BME280;3229;42.674;23.282;2023-07-28T07:23:07;94736.78;;;28.08;37.56
6393;BME280;3229;42.674;23.282;2023-07-28T07:25:33;94734.94;;;28.08;37.80
6393;BME280;3229;42.674;23.282;2023-07-28T07:28:02;94730.41;;;28.25;37.19
6393;BME280;3229;42.674;23.282;2023-07-28T07:30:28;94735.59;;;28.20;37.05
6393;BME280;3229;42.674;23.282;2023-07-28T07:33:00;94740.31;;;28.18;36.77
6393;BME280;3229;42.674;23.282;2023-07-28T07:35:27;94741.22;;;28.29;37.08
6393;BME280;3229;42.674;23.282;2023-07-28T07:37:53;94739.59;;;28.28;36.62
6393;BME280;3229;42.674;23.282;2023-07-28T07:40:20;94750.69;;;28.30;36.75
6393;BME280;3229;42.674;23.282;2023-07-28T07:42:48;94741.97;;;28.46;36.73
6393;BME280;3229;42.674;23.282;2023-07-28T07:45:18;94745.81;;;28.66;36.04
6393;BME280;3229;42.674;23.282;2023-07-28T07:47:45;94735.19;;;28.56;36.49
6393;BME280;3229;42.674;23.282;2023-07-28T07:50:11;94743.53;;;28.74;35.99
6393;BME280;3229;42.674;23.282;2023-07-28T07:52:39;94740.47;;;28.88;36.00
6393;BME280;3229;42.674;23.282;2023-07-28T07:55:06;94739.00;;;28.97;36.07
6393;BME280;3229;42.674;23.282;2023-07-28T07:57:33;94741.00;;;29.17;35.79
6393;BME280;3229;42.674;23.282;2023-07-28T08:00:00;94742.22;;;29.04;35.96
6393;BME280;3229;42.674;23.282;2023-07-28T08:02:28;94742.28;;;29.14;35.44
6393;BME280;3229;42.674;23.282;2023-07-28T08:04:55;94745.25;;;29.23;35.63
6393;BME280;3229;42.674;23.282;2023-07-28T08:07:22;94741.81;;;29.22;35.35
6393;BME280;3229;42.674;23.282;2023-07-28T08:09:49;94741.63;;;29.29;35.05
6393;BME280;3229;42.674;23.282;2023-07-28T08:12:16;94740.53;;;29.25;34.87
6393;BME280;3229;42.674;23.282;2023-07-28T08:14:43;94734.88;;;29.06;35.71
6393;BME280;3229;42.674;23.282;2023-07-28T08:17:11;94737.19;;;28.97;35.21
6393;BME280;3229;42.674;23.282;2023-07-28T08:19:39;94742.78;;;28.79;35.24
6393;BME280;3229;42.674;23.282;2023-07-28T08:22:07;94729.22;;;28.65;36.19
6393;BME280;3229;42.674;23.282;2023-07-28T08:24:34;94733.09;;;28.85;36.31
6393;BME280;3229;42.674;23.282;2023-07-28T08:27:01;94728.06;;;28.83;36.05
6393;BME280;3229;42.674;23.282;2023-07-28T08:29:28;94729.81;;;28.99;36.13
6393;BME280;3229;42.674;23.282;2023-07-28T08:31:54;94725.53;;;29.25;35.53
6393;BME280;3229;42.674;23.282;2023-07-28T08:34:22;94728.75;;;29.38;34.87
6393;BME280;3229;42.674;23.282;2023-07-28T08:36:50;94732.69;;;29.35;35.04
6393;BME280;3229;42.674;23.282;2023-07-28T08:39:18;94728.75;;;29.38;35.38
6393;BME280;3229;42.674;23.282;2023-07-28T08:41:45;94733.84;;;29.49;35.22
6393;BME280;3229;42.674;23.282;2023-07-28T08:44:12;94704.56;;;29.46;35.22
6393;BME280;3229;42.674;23.282;2023-07-28T08:46:39;94720.69;;;29.55;34.89
6393;BME280;3229;42.674;23.282;2023-07-28T08:49:05;94724.13;;;29.55;34.86
6393;BME280;3229;42.674;23.282;2023-07-28T08:51:32;94722.25;;;29.50;34.45
6393;BME280;3229;42.674;23.282;2023-07-28T08:54:00;94720.13;;;29.53;34.72
6393;BME280;3229;42.674;23.282;2023-07-28T08:56:27;94717.94;;;29.34;34.96
6393;BME280;3229;42.674;23.282;2023-07-28T08:58:58;94709.41;;;29.17;34.80
6393;BME280;3229;42.674;23.282;2023-07-28T09:01:25;94705.34;;;29.04;34.77
6393;BME280;3229;42.674;23.282;2023-07-28T09:03:52;94702.53;;;28.84;35.49
6393;BME280;3229;42.674;23.282;2023-07-28T09:06:28;94685.66;;;28.80;35.57
6393;BME280;3229;42.674;23.282;2023-07-28T09:08:56;94693.94;;;28.93;35.57
6393;BME280;3229;42.674;23.282;2023-07-28T09:11:25;94686.56;;;28.95;35.97
6393;BME280;3229;42.674;23.282;2023-07-28T09:13:54;94686.78;;;28.89;35.45
6393;BME280;3229;42.674;23.282;2023-07-28T09:16:21;94680.59;;;28.73;35.11
6393;BME280;3229;42.674;23.282;2023-07-28T09:18:50;94657.53;;;28.53;35.83
6393;BME280;3229;42.674;23.282;2023-07-28T09:21:17;94668.16;;;28.63;36.07
6393;BME280;3229;42.674;23.282;2023-07-28T09:23:46;94668.06;;;28.85;35.66
6393;BME280;3229;42.674;23.282;2023-07-28T09:26:14;94650.31;;;29.03;35.76
6393;BME280;3229;42.674;23.282;2023-07-28T09:28:42;94652.72;;;29.14;35.00
6393;BME280;3229;42.674;23.282;2023-07-28T09:31:09;94649.09;;;29.20;35.20
6393;BME280;3229;42.674;23.282;2023-07-28T09:33:37;94652.31;;;29.28;35.32
6393;BME280;3229;42.674;23.282;2023-07-28T09:36:09;94639.06;;;29.17;34.71
6393;BME280;3229;42.674;23.282;2023-07-28T09:38:37;94641.97;;;29.21;34.81
6393;BME280;3229;42.674;23.282;2023-07-28T09:41:06;94637.22;;;29.18;35.05
6393;BME280;3229;42.674;23.282;2023-07-28T09:43:35;94623.44;;;29.06;34.47
6393;BME280;3229;42.674;23.282;2023-07-28T09:46:06;94625.41;;;29.25;33.79
6393;BME280;3229;42.674;23.282;2023-07-28T09:48:34;94628.34;;;29.34;34.02
6393;BME280;3229;42.674;23.282;2023-07-28T09:51:06;94623.81;;;29.19;34.16
6393;BME280;3229;42.674;23.282;2023-07-28T09:53:40;94622.66;;;29.05;34.66
6393;BME280;3229;42.674;23.282;2023-07-28T09:56:14;94628.25;;;29.14;34.79
6393;BME280;3229;42.674;23.282;2023-07-28T09:58:48;94621.44;;;29.23;34.31
6393;BME280;3229;42.674;23.282;2023-07-28T10:01:19;94620.91;;;29.21;34.45
6393;BME280;3229;42.674;23.282;2023-07-28T10:03:47;94624.13;;;29.28;34.05
6393;BME280;3229;42.674;23.282;2023-07-28T10:06:16;94619.91;;;29.32;34.47
6393;BME280;3229;42.674;23.282;2023-07-28T10:08:44;94611.25;;;29.42;33.85
6393;BME280;3229;42.674;23.282;2023-07-28T10:11:12;94608.13;;;29.45;34.30
6393;BME280;3229;42.674;23.282;2023-07-28T10:13:43;94616.88;;;29.56;34.42
6393;BME280;3229;42.674;23.282;2023-07-28T10:16:12;94616.88;;;29.61;34.33
6393;BME280;3229;42.674;23.282;2023-07-28T10:18:52;94608.78;;;29.78;34.65
6393;BME280;3229;42.674;23.282;2023-07-28T10:21:20;94611.97;;;29.85;33.34
6393;BME280;3229;42.674;23.282;2023-07-28T10:23:54;94606.16;;;29.83;33.82
6393;BME280;3229;42.674;23.282;2023-07-28T10:26:31;94623.28;;;29.80;33.91
6393;BME280;3229;42.674;23.282;2023-07-28T10:29:09;94600.59;;;29.74;33.81
6393;BME280;3229;42.674;23.282;2023-07-28T10:31:37;94599.56;;;29.75;33.29
6393;BME280;3229;42.674;23.282;2023-07-28T10:34:05;94595.31;;;29.74;33.68
6393;BME280;3229;42.674;23.282;2023-07-28T10:36:33;94589.00;;;29.75;33.69
6393;BME280;3229;42.674;23.282;2023-07-28T10:39:05;94591.66;;;29.85;33.42
6393;BME280;3229;42.674;23.282;2023-07-28T10:41:41;94580.84;;;29.92;33.30
6393;BME280;3229;42.674;23.282;2023-07-28T10:44:27;94577.69;;;29.90;33.98
6393;BME280;3229;42.674;23.282;2023-07-28T10:46:54;94576.91;;;29.89;34.20
6393;BME280;3229;42.674;23.282;2023-07-28T10:49:23;94588.50;;;29.88;33.69
6393;BME280;3229;42.674;23.282;2023-07-28T10:51:50;94579.25;;;29.86;34.12
6393;BME280;3229;42.674;23.282;2023-07-28T10:54:17;94572.66;;;29.78;33.83
6393;BME280;3229;42.674;23.282;2023-07-28T10:56:45;94572.94;;;29.87;34.39
6393;BME280;3229;42.674;23.282;2023-07-28T10:59:15;94573.47;;;29.89;32.91
6393;BME280;3229;42.674;23.282;2023-07-28T11:01:42;94557.09;;;29.82;32.63
6393;BME280;3229;42.674;23.282;2023-07-28T11:04:11;94561.31;;;29.78;33.11
6393;BME280;3229;42.674;23.282;2023-07-28T11:06:41;94559.47;;;29.78;34.39
6393;BME280;3229;42.674;23.282;2023-07-28T11:09:10;94557.09;;;29.77;34.00
6393;BME280;3229;42.674;23.282;2023-07-28T11:11:38;94545.19;;;29.59;33.99
6393;BME280;3229;42.674;23.282;2023-07-28T11:14:05;94554.66;;;29.55;34.49
6393;BME280;3229;42.674;23.282;2023-07-28T11:16:33;94553.34;;;29.57;34.81
6393;BME280;3229;42.674;23.282;2023-07-28T11:19:01;94547.53;;;29.55;34.11
6393;BME280;3229;42.674;23.282;2023-07-28T11:21:29;94545.16;;;29.54;33.69
6393;BME280;3229;42.674;23.282;2023-07-28T11:23:57;94541.78;;;29.58;33.54
6393;BME280;3229;42.674;23.282;2023-07-28T11:26:24;94535.97;;;29.61;33.91
6393;BME280;3229;42.674;23.282;2023-07-28T11:28:51;94538.63;;;29.66;33.63
6393;BME280;3229;42.674;23.282;2023-07-28T11:31:23;94524.13;;;29.74;33.47
6393;BME280;3229;42.674;23.282;2023-07-28T11:33:51;94525.47;;;29.71;33.08
6393;BME280;3229;42.674;23.282;2023-07-28T11:36:22;94518.84;;;29.69;32.79
6393;BME280;3229;42.674;23.282;2023-07-28T11:38:49;94515.94;;;29.70;32.69
6393;BME280;3229;42.674;23.282;2023-07-28T11:41:18;94517.56;;;29.77;32.78
6393;BME280;3229;42.674;23.282;2023-07-28T11:43:46;94514.66;;;29.83;32.71
6393;BME280;3229;42.674;23.282;2023-07-28T11:46:33;94512.84;;;29.84;33.11
6393;BME280;3229;42.674;23.282;2023-07-28T11:49:08;94518.06;;;29.79;32.84
6393;BME280;3229;42.674;23.282;2023-07-28T11:51:38;94512.03;;;29.88;32.20
6393;BME280;3229;42.674;23.282;2023-07-28T11:54:06;94506.75;;;29.98;31.75
6393;BME280;3229;42.674;23.282;2023-07-28T11:56:34;94514.16;;;30.12;32.25
6393;BME280;3229;42.674;23.282;2023-07-28T11:59:01;94464.31;;;29.85;31.91
6393;BME280;3229;42.674;23.282;2023-07-28T12:01:29;94502.81;;;30.27;32.15
6393;BME280;3229;42.674;23.282;2023-07-28T12:03:55;94516.53;;;30.39;32.18
6393;BME280;3229;42.674;23.282;2023-07-28T12:06:24;94509.66;;;30.38;31.99
6393;BME280;3229;42.674;23.282;2023-07-28T12:08:51;94504.91;;;30.35;32.20
6393;BME280;3229;42.674;23.282;2023-07-28T12:11:18;94503.31;;;30.39;32.55
6393;BME280;3229;42.674;23.282;2023-07-28T12:13:50;94499.09;;;30.48;32.32
6393;BME280;3229;42.674;23.282;2023-07-28T12:16:31;94494.38;;;30.45;32.54
6393;BME280;3229;42.674;23.282;2023-07-28T12:18:58;94499.91;;;30.48;32.38
6393;BME280;3229;42.674;23.282;2023-07-28T12:21:25;94488.78;;;30.52;32.98
6393;BME280;3229;42.674;23.282;2023-07-28T12:23:52;94496.97;;;30.55;32.97
6393;BME280;3229;42.674;23.282;2023-07-28T12:26:19;94498.53;;;30.56;33.58
6393;BME280;3229;42.674;23.282;2023-07-28T12:28:46;94487.72;;;30.63;33.69
6393;BME280;3229;42.674;23.282;2023-07-28T12:31:15;94436.31;;;30.35;32.23
6393;BME280;3229;42.674;23.282;2023-07-28T12:33:42;94485.59;;;30.60;32.83
6393;BME280;3229;42.674;23.282;2023-07-28T12:36:10;94486.13;;;30.57;32.85
6393;BME280;3229;42.674;23.282;2023-07-28T12:38:37;94485.59;;;30.60;33.08
6393;BME280;3229;42.674;23.282;2023-07-28T12:41:04;94475.06;;;30.55;33.07
6393;BME280;3229;42.674;23.282;2023-07-28T12:43:32;94475.31;;;30.63;33.33
6393;BME280;3229;42.674;23.282;2023-07-28T12:45:59;94472.41;;;30.60;33.60
6393;BME280;3229;42.674;23.282;2023-07-28T12:48:27;94463.44;;;30.66;33.43
6393;BME280;3229;42.674;23.282;2023-07-28T12:50:54;94466.06;;;30.66;33.64
6393;BME280;3229;42.674;23.282;2023-07-28T12:53:21;94463.66;;;30.69;33.38
6393;BME280;3229;42.674;23.282;2023-07-28T12:55:49;94465.81;;;30.72;33.46
6393;BME280;3229;42.674;23.282;2023-07-28T12:58:15;94465.25;;;30.70;33.50
6393;BME280;3229;42.674;23.282;2023-07-28T13:00:43;94465.53;;;30.74;33.78
6393;BME280;3229;42.674;23.282;2023-07-28T13:03:09;94469.22;;;30.78;33.89
6393;BME280;3229;42.674;23.282;2023-07-28T13:05:38;94465.53;;;30.79;33.71
6393;BME280;3229;42.674;23.282;2023-07-28T13:08:05;94463.69;;;30.80;33.68
6393;BME280;3229;42.674;23.282;2023-07-28T13:10:31;94453.38;;;30.68;33.44
6393;BME280;3229;42.674;23.282;2023-07-28T13:12:58;94451.00;;;30.61;33.78